Aérodrome :
LOGIN :

S'inscrire | Disclaimer

   EN    FR    IT 

 










Légende :    VFR   VFR Marginal   IFR   IFR Intensif   IFR Très Intensif
Visi : 
Plafond : 
>= 8 km
>= 3000ft
5 à 8 km
1000 à 3000 ft
1500m à 5 km
500 à 1000 ft
800 à 1500m
200 à 500 ft
< 800m
< 200 ft
Symboles :   Orages  Brouillard  Fortes neiges  Fortes précipitations  Vent > 20 kt
SIGMETs :   Divers  Orages  Givrage  Turbulence  Onde Orograph.  Cendres Volcan.







- Altitude de l'aérodrome : 309 ft
- Code IATA : FNI
- Voir les cartes d'approche


LFTW - Nîmes Garons

DERNIER METAR :
  • 281130Z AUTO 01018KT 340V040 CAVOK 14/M01 Q1015 TEMPO 36015G25KT

METARs EXPIRÉS :
  • 281100Z AUTO 35017G28KT 320V020 CAVOK 13/M03 Q1015 NOSIG
  • 281030Z AUTO 35017KT 320V020 CAVOK 13/M02 Q1015 TEMPO 36015G25KT
  • 281000Z AUTO 35019KT 320V020 CAVOK 13/M01 Q1015 TEMPO 36015G25KT
  • 280930Z AUTO 35018G28KT CAVOK 13/M02 Q1015 NOSIG
  • 280900Z AUTO 35017KT CAVOK 12/M03 Q1015 TEMPO 36015G25KT

TAF TAF LFTW
Valide du 28 à 09h jusqu'au 29 à 09h UTC


280800Z 2809/2909 33015KT CAVOK
TEMPO 2809/2818 36015G25KT
BECMG 2901/2903 36020G30KT
Pas de NOTAMs connus pour ce terrain.
2 SIGMETs publiés pour la FIR Marseille (LFMM) :
 
Turbulence forte
LFMM SIGMET 6 VALID 281100/281500 LFPW
LFMM MARSEILLE FIR/UIR SEV TURB FCST WI N4300 E00945 - N4115 E00945 - N4115 E00600 - N4430 E00300 - N4445 E00500 - N4345 E00700 SFC/FL060 STNR WKN=
Onde orographique forte
LFMM SIGMET 5 VALID 281100/281500 LFPW
LFMM MARSEILLE FIR/UIR SEV MTW FCST WI N4315 E00930 - N4315 E00945 - N4115 E00945 - N4115 E00845 - N4230 E00815 FL060/260 STNR WKN=



MET'MAP, la Météo Aéronautique d'un coup d'oeil ! - Copyright ORBIFLY Décembre 2007 - Disclaimer

ORBIFLY MET'MAP TEAM :

Programmation & Développement : Alexandra Zaïnal
Conception & Développement : Baudouin d'Aumeries
Co-Programmation & Développement : Marc-Olivier Méhu
Soutien technique & logistique : Manuel Goepfert

Contact : metmap@orbifly.com




SOURCES & CREDITS :

   NOAA